createdAt,value
2023-02-23T00:01:16.278Z,36.03
2023-02-23T00:03:44.698Z,35.55
2023-02-23T00:06:13.688Z,34.97
2023-02-23T00:08:41.808Z,37.28
2023-02-23T00:11:11.676Z,35.85
2023-02-23T00:13:40.152Z,34.83
2023-02-23T00:16:09.321Z,33.70
2023-02-23T00:18:45.639Z,35.20
2023-02-23T00:21:16.521Z,33.88
2023-02-23T00:23:45.558Z,33.40
2023-02-23T00:26:14.413Z,32.33
2023-02-23T00:28:44.763Z,33.72
2023-02-23T00:31:13.458Z,32.63
2023-02-23T00:33:43.183Z,33.03
2023-02-23T00:36:12.512Z,31.70
2023-02-23T00:38:40.777Z,31.77
2023-02-23T00:41:11.024Z,32.28
2023-02-23T00:43:47.606Z,31.33
2023-02-23T00:46:17.630Z,32.28
2023-02-23T00:48:47.479Z,30.90
2023-02-23T00:51:15.827Z,30.05
2023-02-23T00:53:44.265Z,30.77
2023-02-23T00:56:13.765Z,30.05
2023-02-23T00:58:42.421Z,29.88
2023-02-23T01:01:11.956Z,28.73
2023-02-23T01:03:41.608Z,29.38
2023-02-23T01:06:14.918Z,29.75
2023-02-23T01:08:44.296Z,29.30
2023-02-23T01:11:13.125Z,28.63
2023-02-23T01:13:44.687Z,28.35
2023-02-23T01:16:16.098Z,28.40
2023-02-23T01:18:44.795Z,28.55
2023-02-23T01:21:17.983Z,28.23
2023-02-23T01:23:46.386Z,27.75
2023-02-23T01:26:19.198Z,27.23
2023-02-23T01:28:50.415Z,26.88
2023-02-23T01:31:19.714Z,27.05
2023-02-23T01:33:47.984Z,26.98
2023-02-23T01:36:18.737Z,26.63
2023-02-23T01:38:46.929Z,25.50
2023-02-23T01:41:15.470Z,26.27
2023-02-23T01:44:00.742Z,24.92
2023-02-23T01:46:30.245Z,26.08
2023-02-23T01:48:58.628Z,25.27
2023-02-23T01:51:29.121Z,25.10
2023-02-23T01:54:01.229Z,24.92
2023-02-23T01:56:31.018Z,24.52
2023-02-23T01:58:59.548Z,24.73
2023-02-23T02:01:29.792Z,25.73
2023-02-23T02:03:59.345Z,24.20
2023-02-23T02:06:30.054Z,23.23
2023-02-23T02:09:00.838Z,23.95
2023-02-23T02:11:36.358Z,23.95
2023-02-23T02:14:09.184Z,23.10
2023-02-23T02:16:48.021Z,22.83
2023-02-23T02:19:54.577Z,22.92
2023-02-23T02:22:48.342Z,23.05
2023-02-23T02:25:43.321Z,23.05
2023-02-23T02:28:32.947Z,21.30
2023-02-23T02:31:28.229Z,21.67
2023-02-23T02:34:03.351Z,21.67
2023-02-23T02:37:13.165Z,21.10
2023-02-23T02:39:46.813Z,21.33
2023-02-23T02:42:20.609Z,21.42
2023-02-23T02:44:52.332Z,21.05
2023-02-23T02:47:24.120Z,20.70
2023-02-23T02:49:53.598Z,20.60
2023-02-23T02:52:25.829Z,19.95
2023-02-23T02:54:54.933Z,20.38
2023-02-23T02:57:25.743Z,20.40
2023-02-23T03:00:11.411Z,20.65
2023-02-23T03:02:58.980Z,19.80
2023-02-23T03:05:46.417Z,19.60
2023-02-23T03:08:37.633Z,19.88
2023-02-23T03:11:24.493Z,19.25
2023-02-23T03:14:20.556Z,19.20
2023-02-23T03:17:10.060Z,19.25
2023-02-23T03:19:57.495Z,18.85
2023-02-23T03:22:46.671Z,19.20
2023-02-23T03:25:35.436Z,18.15
2023-02-23T03:28:28.601Z,18.60
2023-02-23T03:31:21.523Z,17.35
2023-02-23T03:34:13.392Z,18.23
2023-02-23T03:37:02.476Z,17.58
2023-02-23T03:39:51.880Z,17.35
2023-02-23T03:42:39.734Z,17.38
2023-02-23T03:45:27.270Z,16.60
2023-02-23T03:48:13.156Z,17.48
2023-02-23T03:51:01.057Z,17.25
2023-02-23T03:53:48.635Z,17.05
2023-02-23T03:56:34.522Z,16.80
2023-02-23T03:59:21.996Z,16.77
2023-02-23T04:02:07.717Z,17.25
2023-02-23T04:04:53.608Z,16.38
2023-02-23T04:07:39.018Z,16.42
2023-02-23T04:10:26.495Z,16.10
2023-02-23T04:13:14.944Z,15.95
2023-02-23T04:15:46.408Z,15.88
2023-02-23T04:18:15.790Z,15.45
2023-02-23T04:20:44.030Z,15.32
2023-02-23T04:23:12.603Z,15.23
2023-02-23T04:25:40.825Z,15.05
2023-02-23T04:28:09.660Z,15.10
2023-02-23T04:30:38.356Z,14.98
2023-02-23T04:33:08.035Z,15.13
2023-02-23T04:35:36.398Z,15.02
2023-02-23T04:38:04.956Z,15.05
2023-02-23T04:40:33.343Z,14.60
2023-02-23T04:43:01.687Z,14.30
2023-02-23T04:45:29.865Z,15.23
2023-02-23T04:47:57.914Z,13.80
2023-02-23T04:50:27.423Z,14.00
2023-02-23T04:52:55.443Z,14.25
2023-02-23T04:55:24.656Z,14.27
2023-02-23T04:57:53.037Z,14.20
2023-02-23T05:00:21.419Z,14.20
2023-02-23T05:02:50.676Z,13.45
2023-02-23T05:05:19.048Z,13.88
2023-02-23T05:07:48.534Z,13.52
2023-02-23T05:10:16.837Z,13.18
2023-02-23T05:12:44.919Z,13.90
2023-02-23T05:15:13.145Z,13.48
2023-02-23T05:17:42.390Z,13.13
2023-02-23T05:20:11.830Z,12.98
2023-02-23T05:22:39.991Z,13.32
2023-02-23T05:25:12.023Z,12.95
2023-02-23T05:27:40.299Z,12.55
2023-02-23T05:30:10.055Z,12.80
2023-02-23T05:32:38.195Z,12.52
2023-02-23T05:35:07.131Z,12.10
2023-02-23T05:37:35.220Z,12.85
2023-02-23T05:40:03.403Z,12.15
2023-02-23T05:42:32.856Z,12.88
2023-02-23T05:45:01.020Z,12.13
2023-02-23T05:47:29.116Z,11.50
2023-02-23T05:49:57.145Z,11.73
2023-02-23T05:52:25.724Z,12.02
2023-02-23T05:54:53.825Z,11.52
2023-02-23T05:57:22.116Z,11.63
2023-02-23T05:59:51.562Z,11.93
2023-02-23T06:02:19.717Z,11.77
2023-02-23T06:04:47.797Z,11.50
2023-02-23T06:07:15.956Z,12.07
2023-02-23T06:09:44.677Z,11.10
2023-02-23T06:12:12.817Z,11.35
2023-02-23T06:14:40.892Z,11.18
2023-02-23T06:17:10.389Z,14.13
2023-02-23T06:19:38.596Z,13.05
2023-02-23T06:22:06.673Z,14.20
2023-02-23T06:24:35.132Z,15.32
2023-02-23T06:27:03.251Z,23.08
2023-02-23T06:29:31.341Z,18.65
2023-02-23T06:32:01.129Z,24.23
2023-02-23T06:34:30.947Z,18.17
2023-02-23T06:37:00.650Z,19.10
2023-02-23T06:39:28.703Z,20.33
2023-02-23T06:41:56.829Z,26.02
2023-02-23T06:44:25.168Z,32.85
2023-02-23T06:46:53.563Z,30.35
2023-02-23T06:49:21.732Z,32.20
2023-02-23T06:51:51.188Z,36.90
2023-02-23T06:54:19.275Z,44.38
2023-02-23T06:56:47.423Z,47.92
2023-02-23T06:59:15.629Z,49.47
2023-02-23T07:01:44.854Z,46.08
2023-02-23T07:04:14.913Z,50.45
2023-02-23T07:06:44.768Z,50.15
2023-02-23T07:09:15.533Z,48.78
2023-02-23T07:11:44.881Z,50.92
2023-02-23T07:14:21.541Z,51.50
2023-02-23T07:16:54.405Z,49.33
2023-02-23T07:19:23.409Z,48.92
2023-02-23T07:21:51.566Z,48.08
2023-02-23T07:24:21.998Z,47.90
2023-02-23T07:26:50.172Z,47.60
2023-02-23T07:29:18.208Z,48.88
2023-02-23T07:31:46.424Z,46.08
2023-02-23T07:34:14.582Z,46.72
2023-02-23T07:36:42.631Z,44.50
2023-02-23T07:39:10.664Z,45.53
2023-02-23T07:41:40.156Z,46.33
2023-02-23T07:44:17.436Z,45.65
2023-02-23T07:46:46.516Z,45.80
2023-02-23T07:49:15.040Z,45.42
2023-02-23T07:51:43.184Z,45.60
2023-02-23T07:54:11.263Z,44.00
2023-02-23T07:56:40.791Z,44.53
2023-02-23T07:59:08.918Z,43.47
2023-02-23T08:01:37.115Z,44.78
2023-02-23T08:04:05.668Z,43.83
2023-02-23T08:06:33.849Z,43.88
2023-02-23T08:09:02.489Z,46.60
2023-02-23T08:11:30.529Z,44.67
2023-02-23T08:14:01.127Z,44.42
2023-02-23T08:16:29.409Z,44.33
2023-02-23T08:18:58.331Z,43.00
2023-02-23T08:21:26.574Z,44.60
2023-02-23T08:23:55.541Z,43.67
2023-02-23T08:26:24.319Z,43.58
2023-02-23T08:28:52.624Z,44.15
2023-02-23T08:31:24.348Z,43.67
2023-02-23T08:33:52.995Z,41.72
2023-02-23T08:36:21.368Z,44.13
2023-02-23T08:38:49.638Z,42.10
2023-02-23T08:41:18.003Z,42.35
2023-02-23T08:43:46.343Z,43.28
2023-02-23T08:46:14.534Z,42.85
2023-02-23T08:48:44.152Z,42.30
2023-02-23T08:51:12.348Z,41.65
2023-02-23T08:53:40.430Z,41.75
2023-02-23T08:56:09.295Z,41.33
2023-02-23T08:58:37.618Z,39.83
2023-02-23T09:01:06.135Z,40.03
2023-02-23T09:03:38.233Z,40.20
2023-02-23T09:06:10.078Z,38.55
2023-02-23T09:08:39.250Z,39.45
2023-02-23T09:11:07.314Z,40.55
2023-02-23T09:13:36.176Z,39.78
2023-02-23T09:16:05.009Z,43.40
2023-02-23T09:18:33.195Z,44.75
2023-02-23T09:21:06.959Z,43.65
2023-02-23T09:23:36.762Z,44.60
2023-02-23T09:26:05.140Z,44.40
2023-02-23T09:28:33.992Z,50.03
2023-02-23T09:31:07.046Z,49.58
2023-02-23T09:33:35.261Z,50.92
2023-02-23T09:36:06.168Z,51.53
2023-02-23T09:38:34.278Z,54.50
2023-02-23T09:41:03.712Z,53.75
2023-02-23T09:43:33.533Z,58.78
2023-02-23T09:46:06.042Z,53.17
2023-02-23T09:48:34.272Z,52.53
2023-02-23T09:51:02.360Z,52.95
2023-02-23T09:53:36.457Z,51.95
2023-02-23T09:56:10.665Z,53.80
2023-02-23T09:58:38.786Z,51.67
2023-02-23T10:01:24.732Z,52.42
2023-02-23T10:03:55.556Z,50.20
2023-02-23T10:06:23.736Z,54.05
2023-02-23T10:08:58.144Z,51.72
2023-02-23T10:11:29.471Z,54.45
2023-02-23T10:14:03.188Z,53.65
2023-02-23T10:16:36.590Z,52.55
2023-02-23T10:19:07.139Z,51.65
2023-02-23T10:21:37.073Z,53.33
2023-02-23T10:24:06.538Z,54.65
2023-02-23T10:26:40.224Z,58.47
2023-02-23T10:29:11.497Z,56.47
2023-02-23T10:31:42.647Z,58.22
2023-02-23T10:34:14.157Z,56.65
2023-02-23T10:36:44.319Z,57.35
2023-02-23T10:39:12.952Z,57.15
2023-02-23T10:41:42.493Z,56.00
2023-02-23T10:44:17.347Z,56.95
2023-02-23T10:46:45.693Z,55.45
2023-02-23T10:49:16.646Z,52.60
2023-02-23T10:51:44.741Z,54.60
2023-02-23T10:54:38.885Z,46.92
2023-02-23T10:57:08.865Z,42.15
2023-02-23T10:59:36.924Z,36.33
2023-02-23T11:02:23.332Z,36.97
2023-02-23T11:04:53.139Z,35.95
2023-02-23T11:07:24.235Z,36.13
2023-02-23T11:09:52.889Z,35.08
2023-02-23T11:12:24.215Z,35.47
2023-02-23T11:14:53.052Z,35.35
2023-02-23T11:17:27.741Z,34.55
2023-02-23T11:19:59.895Z,33.67
2023-02-23T11:22:28.072Z,34.08
2023-02-23T11:24:56.245Z,34.60
2023-02-23T11:27:27.260Z,35.15
2023-02-23T11:29:56.877Z,35.45
2023-02-23T11:32:28.939Z,35.40
2023-02-23T11:35:13.703Z,34.85
2023-02-23T11:37:41.876Z,35.45
2023-02-23T11:40:20.229Z,36.65
2023-02-23T11:42:54.697Z,35.25
2023-02-23T11:45:23.623Z,36.78
2023-02-23T11:47:52.652Z,37.78
2023-02-23T11:50:25.527Z,37.53
2023-02-23T11:52:56.772Z,39.15
2023-02-23T11:55:25.565Z,38.80
2023-02-23T11:57:56.898Z,40.88
2023-02-23T12:00:27.428Z,39.60
2023-02-23T12:02:58.619Z,37.55
2023-02-23T12:05:27.648Z,37.03
2023-02-23T12:07:59.771Z,37.00
2023-02-23T12:10:29.187Z,38.83
2023-02-23T12:13:04.596Z,37.72
2023-02-23T12:15:37.501Z,37.28
2023-02-23T12:18:08.434Z,37.05
2023-02-23T12:20:39.178Z,36.95
2023-02-23T12:23:09.175Z,37.78
2023-02-23T12:25:40.632Z,37.05
2023-02-23T12:28:19.247Z,41.42
2023-02-23T12:30:49.748Z,40.85
2023-02-23T12:33:20.207Z,40.45
2023-02-23T12:35:51.760Z,40.35
2023-02-23T12:38:27.921Z,41.78
2023-02-23T12:40:59.959Z,40.80
2023-02-23T12:43:33.609Z,42.95
2023-02-23T12:46:08.513Z,41.47
2023-02-23T12:48:39.737Z,41.70
2023-02-23T12:51:12.644Z,41.45
2023-02-23T12:53:42.113Z,42.25
2023-02-23T12:56:20.862Z,44.13
2023-02-23T12:58:52.110Z,44.30
2023-02-23T13:01:22.710Z,45.10
2023-02-23T13:04:01.143Z,46.53
2023-02-23T13:06:36.897Z,50.80
2023-02-23T13:09:11.395Z,49.08
2023-02-23T13:11:53.883Z,49.38
2023-02-23T13:14:26.666Z,48.92
2023-02-23T13:16:56.586Z,48.17
2023-02-23T13:19:26.472Z,49.78
2023-02-23T13:21:56.292Z,50.50
2023-02-23T13:24:26.106Z,50.55
2023-02-23T13:26:56.830Z,51.67
2023-02-23T13:29:31.879Z,53.83
2023-02-23T13:34:50.034Z,53.28
2023-02-23T13:37:20.664Z,50.70
2023-02-23T13:39:54.203Z,49.65
2023-02-23T13:42:28.241Z,48.20
2023-02-23T13:45:02.236Z,46.88
2023-02-23T13:47:35.982Z,48.90
2023-02-23T13:50:06.405Z,49.53
2023-02-23T13:52:39.754Z,47.42
2023-02-23T13:55:49.926Z,48.75
2023-02-23T13:58:19.488Z,46.65
2023-02-23T14:00:56.465Z,47.42
2023-02-23T14:03:25.662Z,47.53
2023-02-23T14:05:56.662Z,49.03
2023-02-23T14:08:32.444Z,48.50
2023-02-23T14:11:00.601Z,48.13
2023-02-23T14:13:31.025Z,45.92
2023-02-23T14:16:18.453Z,47.30
2023-02-23T14:19:08.237Z,48.25
2023-02-23T14:21:38.251Z,48.00
2023-02-23T14:24:20.075Z,48.50
2023-02-23T14:27:40.440Z,47.47
2023-02-23T14:30:25.411Z,48.00
2023-02-23T14:32:54.968Z,49.83
2023-02-23T14:35:45.146Z,48.88
2023-02-23T14:38:18.398Z,48.47
2023-02-23T14:40:49.011Z,49.38
2023-02-23T14:43:48.225Z,50.25
2023-02-23T14:46:20.288Z,48.40
2023-02-23T14:48:59.801Z,48.20
2023-02-23T14:51:42.529Z,49.88
2023-02-23T14:54:16.361Z,46.63
2023-02-23T14:56:48.020Z,47.75
2023-02-23T14:59:20.995Z,48.00
2023-02-23T15:01:49.265Z,46.65
2023-02-23T15:04:20.887Z,46.08
2023-02-23T15:06:49.103Z,46.20
2023-02-23T15:09:19.327Z,45.50
2023-02-23T15:11:49.992Z,46.35
2023-02-23T15:14:27.302Z,44.33
2023-02-23T15:16:57.027Z,44.78
2023-02-23T15:19:26.486Z,45.63
2023-02-23T15:21:55.258Z,44.50
2023-02-23T15:24:25.855Z,45.15
2023-02-23T15:26:53.998Z,43.70
2023-02-23T15:29:22.890Z,44.50
2023-02-23T15:31:52.852Z,42.65
2023-02-23T15:34:21.979Z,41.88
2023-02-23T15:36:53.504Z,42.42
2023-02-23T15:39:34.386Z,42.63
2023-02-23T15:42:02.972Z,44.90
2023-02-23T15:44:43.607Z,45.05
2023-02-23T15:47:17.919Z,45.88
2023-02-23T15:49:46.124Z,45.28
2023-02-23T15:52:18.619Z,47.80
2023-02-23T15:54:48.982Z,47.75
2023-02-23T15:57:20.543Z,47.80
2023-02-23T15:59:49.129Z,52.22
2023-02-23T16:02:19.411Z,51.90
2023-02-23T16:04:49.943Z,47.22
2023-02-23T16:07:20.616Z,47.85
2023-02-23T16:09:53.122Z,50.50
2023-02-23T16:12:23.007Z,50.50
2023-02-23T16:14:54.016Z,50.88
2023-02-23T16:17:27.093Z,51.58
2023-02-23T16:19:56.603Z,53.05
2023-02-23T16:22:27.691Z,51.85
2023-02-23T16:25:00.879Z,51.20
2023-02-23T16:27:29.739Z,51.50
2023-02-23T16:30:00.526Z,51.63
2023-02-23T16:32:34.983Z,53.50
2023-02-23T16:35:03.966Z,53.65
2023-02-23T16:37:33.456Z,54.05
2023-02-23T16:40:01.923Z,53.47
2023-02-23T16:42:31.650Z,53.00
2023-02-23T16:45:00.255Z,49.13
2023-02-23T16:47:36.578Z,51.58
2023-02-23T16:50:20.147Z,49.53
2023-02-23T16:52:53.626Z,49.58
2023-02-23T16:55:26.163Z,49.78
2023-02-23T16:57:55.771Z,49.88
2023-02-23T17:00:26.559Z,50.50
2023-02-23T17:02:55.770Z,52.88
2023-02-23T17:05:24.716Z,51.33
2023-02-23T17:07:54.373Z,50.58
2023-02-23T17:10:26.976Z,51.42
2023-02-23T17:12:55.708Z,51.15
2023-02-23T17:15:24.956Z,50.28
2023-02-23T17:17:56.213Z,51.53
2023-02-23T17:20:26.143Z,51.25
2023-02-23T17:22:56.016Z,49.03
2023-02-23T17:25:26.697Z,49.97
2023-02-23T17:27:54.846Z,49.38
2023-02-23T17:30:23.698Z,49.13
2023-02-23T17:32:52.310Z,48.75
2023-02-23T17:35:20.646Z,48.50
2023-02-23T17:37:48.786Z,48.40
2023-02-23T17:40:26.144Z,46.65
2023-02-23T17:42:54.335Z,46.28
2023-02-23T17:45:22.676Z,48.28
2023-02-23T17:47:50.897Z,49.63
2023-02-23T17:50:20.038Z,51.38
2023-02-23T17:52:48.251Z,52.28
2023-02-23T17:55:16.353Z,52.03
2023-02-23T17:57:46.105Z,52.80
2023-02-23T18:00:15.471Z,52.72
2023-02-23T18:02:44.429Z,53.20
2023-02-23T18:05:13.488Z,53.10
2023-02-23T18:07:41.605Z,54.67
2023-02-23T18:10:11.103Z,52.45
2023-02-23T18:12:39.363Z,52.25
2023-02-23T18:15:09.554Z,50.88
2023-02-23T18:17:37.691Z,53.00
2023-02-23T18:20:07.136Z,51.50
2023-02-23T18:22:35.297Z,52.70
2023-02-23T18:25:03.415Z,52.70
2023-02-23T18:27:31.524Z,51.67
2023-02-23T18:29:59.605Z,50.65
2023-02-23T18:32:29.349Z,52.70
2023-02-23T18:34:57.572Z,50.45
2023-02-23T18:37:28.853Z,49.50
2023-02-23T18:39:59.353Z,48.72
2023-02-23T18:42:27.670Z,50.50
2023-02-23T18:44:55.765Z,48.83
2023-02-23T18:47:24.376Z,48.00
2023-02-23T18:49:53.863Z,47.58
2023-02-23T18:52:21.953Z,47.33
2023-02-23T18:54:50.206Z,46.45
2023-02-23T18:57:18.349Z,46.38
2023-02-23T18:59:47.676Z,46.10
2023-02-23T19:02:15.728Z,46.95
2023-02-23T19:04:43.866Z,44.92
2023-02-23T19:07:13.337Z,44.75
2023-02-23T19:09:41.449Z,44.70
2023-02-23T19:12:11.448Z,44.88
2023-02-23T19:14:49.211Z,43.60
2023-02-23T19:17:17.708Z,44.67
2023-02-23T19:19:45.893Z,45.17
2023-02-23T19:22:15.427Z,45.72
2023-02-23T19:24:43.490Z,46.47
2023-02-23T19:27:11.629Z,47.47
2023-02-23T19:29:39.947Z,48.70
2023-02-23T19:32:08.824Z,47.35
2023-02-23T19:34:37.105Z,48.92
2023-02-23T19:37:05.275Z,47.20
2023-02-23T19:39:35.298Z,49.80
2023-02-23T19:42:03.397Z,48.55
2023-02-23T19:44:31.540Z,48.25
2023-02-23T19:46:59.620Z,48.90
2023-02-23T19:49:27.750Z,48.25
2023-02-23T19:51:57.899Z,48.08
2023-02-23T19:54:28.749Z,47.92
2023-02-23T19:56:58.280Z,49.45
2023-02-23T19:59:28.671Z,48.10
2023-02-23T20:01:56.898Z,48.03
2023-02-23T20:04:25.030Z,47.85
2023-02-23T20:06:53.207Z,49.45
2023-02-23T20:09:21.419Z,47.83
2023-02-23T20:11:49.562Z,46.08
2023-02-23T20:14:18.965Z,46.92
2023-02-23T20:16:47.083Z,47.72
2023-02-23T20:19:15.220Z,48.35
2023-02-23T20:21:43.627Z,47.53
2023-02-23T20:24:12.827Z,46.22
2023-02-23T20:26:40.987Z,47.88
2023-02-23T20:29:11.714Z,46.72
2023-02-23T20:31:44.939Z,46.90
2023-02-23T20:34:13.412Z,46.53
2023-02-23T20:36:41.625Z,47.70
2023-02-23T20:39:10.682Z,47.13
2023-02-23T20:41:43.466Z,45.72
2023-02-23T20:44:11.836Z,48.90
2023-02-23T20:46:41.348Z,47.05
2023-02-23T20:49:11.090Z,47.50
2023-02-23T20:51:39.822Z,47.33
2023-02-23T20:54:08.341Z,47.75
2023-02-23T20:56:36.422Z,47.40
2023-02-23T20:59:04.633Z,46.70
2023-02-23T21:01:32.871Z,48.78
2023-02-23T21:04:02.498Z,47.60
2023-02-23T21:06:31.160Z,50.42
2023-02-23T21:09:04.608Z,50.63
2023-02-23T21:11:32.999Z,48.72
2023-02-23T21:14:01.080Z,51.97
2023-02-23T21:16:32.457Z,49.83
2023-02-23T21:19:05.552Z,50.72
2023-02-23T21:21:34.085Z,50.67
2023-02-23T21:24:02.221Z,53.47
2023-02-23T21:26:30.583Z,53.83
2023-02-23T21:28:58.849Z,55.20
2023-02-23T21:31:27.003Z,53.22
2023-02-23T21:33:55.420Z,55.25
2023-02-23T21:36:24.921Z,55.13
2023-02-23T21:38:53.109Z,56.63
2023-02-23T21:41:21.492Z,56.85
2023-02-23T21:43:53.521Z,59.38
2023-02-23T21:46:23.213Z,57.75
2023-02-23T21:48:51.297Z,57.17
2023-02-23T21:51:20.015Z,58.85
2023-02-23T21:53:49.658Z,56.78
2023-02-23T21:56:18.885Z,59.38
2023-02-23T21:58:48.446Z,59.28
2023-02-23T22:01:17.272Z,58.45
2023-02-23T22:03:47.762Z,58.50
2023-02-23T22:06:16.048Z,60.08
2023-02-23T22:08:44.913Z,59.28
2023-02-23T22:11:17.322Z,59.75
2023-02-23T22:13:45.851Z,59.25
2023-02-23T22:16:14.625Z,60.55
2023-02-23T22:18:42.795Z,58.92
2023-02-23T22:21:11.726Z,60.42
2023-02-23T22:23:40.102Z,59.88
2023-02-23T22:26:09.084Z,60.88
2023-02-23T22:28:38.705Z,59.60
2023-02-23T22:31:08.012Z,60.20
2023-02-23T22:33:36.388Z,58.50
2023-02-23T22:36:06.815Z,60.78
2023-02-23T22:38:35.011Z,60.08
2023-02-23T22:41:05.141Z,58.92
2023-02-23T22:43:34.355Z,59.42
2023-02-23T22:46:03.922Z,58.90
2023-02-23T22:48:32.047Z,58.47
2023-02-23T22:51:00.114Z,59.92
2023-02-23T22:53:28.478Z,60.15
2023-02-23T22:55:56.649Z,58.33
2023-02-23T22:58:26.478Z,57.75
2023-02-23T23:01:04.196Z,58.75
2023-02-23T23:03:35.794Z,57.33
2023-02-23T23:06:04.764Z,57.22
2023-02-23T23:08:36.485Z,58.05
2023-02-23T23:11:09.490Z,56.28
2023-02-23T23:13:40.389Z,57.08
2023-02-23T23:16:16.802Z,56.60
2023-02-23T23:18:54.522Z,56.65
2023-02-23T23:21:24.492Z,56.10
2023-02-23T23:23:53.485Z,54.05
2023-02-23T23:26:22.037Z,55.28
2023-02-23T23:28:51.144Z,53.72
2023-02-23T23:31:22.530Z,54.42
2023-02-23T23:33:52.789Z,55.83
2023-02-23T23:36:22.119Z,54.17
2023-02-23T23:38:50.524Z,53.78
2023-02-23T23:41:18.977Z,55.28
2023-02-23T23:43:47.865Z,52.10
2023-02-23T23:46:17.634Z,52.17
2023-02-23T23:48:45.978Z,51.72
2023-02-23T23:51:44.824Z,51.20
2023-02-23T23:54:13.888Z,52.28
2023-02-23T23:56:43.666Z,50.85
2023-02-23T23:59:15.559Z,52.25
